BXTK1: Spring River at Baxter Springs

Data processed at Wed May 22 2019 23:50


All information presented herein is the property of the government of the United States of America and may be revised or deleted at any time without prior notice.
Dissemination of this information without the expressed written consent of the Public Affairs Office, Tulsa District U.S. Army Corps of Engineers is strictly prohibited.
These data are gathered electronically and, as presented, have not undergone any form of quality control. These data are not guaranteed to be valid or correct.
Go to home page.
Go to station list.
Go to home page.

Upstream stations:

Downstream station:
Previous Day
Next Day
Current Day
    
SHEF ID:       BXTK1     SPRING R NR BAXTER SPRINGS, KS
STATION TYPE:  

               PRECIP     STAGE  RIV-FLOW  BAT-LOAD
                   in        ft       cfs      volt
              Ccp-Rev   Ccp-Rev   Ccp-Rev   Ccp-Rev
(US/Central)
05/22 00:00      0.00     21.13     62674     12.60
05/22 01:00      0.00     21.18     62934     12.60
05/22 02:00      0.00     21.17     62882     12.54
05/22 03:00      0.00     21.27     63404     12.54
05/22 04:00      0.00     21.24     63247     12.54
05/22 05:00      0.00     21.48     64505     12.54
05/22 06:00      0.00     21.58     65033     12.48
05/22 07:00      0.00     21.68     65562     12.60
05/22 08:00      0.00     21.70     65668     13.07
05/22 09:00      0.00     21.76     65987     13.07
05/22 10:00      0.00     21.82     66306     13.12
05/22 11:00      0.00     21.96     67054     13.12
05/22 12:00      0.00     22.00     67268     13.48
05/22 13:00      0.00     22.08     67697     13.77
05/22 14:00      0.00     22.26     68668     13.83
05/22 15:00      0.00     22.14     68020     13.94
05/22 16:00      0.00     22.25     68613     13.94
05/22 17:00      0.00     22.28     68776     13.71
05/22 18:00      0.00     22.31     68938     12.95
05/22 19:00      0.00     22.52     70079     12.77
05/22 20:00      0.23     22.43     69589     12.83
05/22 21:00      0.01     22.47     69807     12.83
05/22 22:00      0.00     22.46     69752     12.77
05/22 23:00      0.00     22.51     70025     12.77